Flight Track Log - Related Links

Times and Time Zones

All times are in EDT time to prevent confusion due to time zone crossing. See the GGN7280 flight status page for this flight to view local times or setup timezone preferences in your user account.

Time Position Orientation Groundspeed Altitude Reporting Facility
EDT Latitude Longitude Course Direction KTS MPH feet Rate Location/Type
Sat 09:28:33 AM 43.6833 -79.6167 216° Southwest 10 12 600  Level Toronto Center
Sat 09:29:33 AM 43.6667 -79.6333 216° Southwest 120 138 1,600 1,800 Climbing Toronto Center
Sat 09:30:33 AM 43.6333 -79.6167 160° South 140 161 4,200 1,700 Climbing Toronto Center
Sat 09:31:33 AM 43.6167 -79.5667 115° Southeast 170 196 5,000 1,350 Climbing Toronto Center
Sat 09:32:33 AM 43.5833 -79.5000 125° Southeast 200 230 6,900 1,950 Climbing Toronto Center
Sat 09:33:33 AM 43.5667 -79.4333 109° East 170 196 8,900 1,750 Climbing Toronto Center
Sat 09:34:33 AM 43.5500 -79.3500 105° East 180 207 10,400 1,650 Climbing Toronto Center
Sat 09:35:33 AM 43.5500 -79.2833 90° East 190 219 12,200 1,700 Climbing Toronto Center
Sat 09:36:33 AM 43.5333 -79.2167 109° East 190 219 13,800 1,800 Climbing Toronto Center
Sat 09:37:33 AM 43.5333 -79.1500 90° East 200 230 15,800 1,750 Climbing Toronto Center
Sat 09:38:33 AM 43.5167 -79.0833 109° East 200 230 17,300 1,400 Climbing Toronto Center
Sat 09:39:33 AM 43.5167 -78.9833 90° East 210 242 18,600 1,300 Climbing Toronto Center
Sat 09:40:33 AM 43.5000 -78.9167 109° East 210 242 19,900 1,200 Climbing Toronto Center
Sat 09:41:33 AM 43.4833 -78.8333 105° East 220 253 21,000 1,050 Climbing Toronto Center
Sat 09:42:33 AM 43.4833 -78.7333 90° East 230 265 22,000 1,000 Climbing Toronto Center
Sat 09:43:33 AM 43.4667 -78.6500 105° East 240 276 23,000 1,030 Climbing Toronto Center
Sat 09:44:12 AM 43.4667 -78.6156 90° East 232 267 23,700 848 Climbing Cleveland Center
Sat 09:45:12 AM 43.4547 -78.5300 101° East 232 267 24,400 650 Climbing Cleveland Center
Sat 09:46:12 AM 43.4450 -78.4389 98° East 237 273 25,000 300 Climbing Cleveland Center
Sat 09:47:12 AM 43.4347 -78.3419 98° East 237 273 25,000  Level Cleveland Center
Sat 09:48:12 AM 43.4203 -78.2397 101° East 253 291 25,000  Level Cleveland Center
Sat 09:49:12 AM 43.4078 -78.1428 100° East 258 297 25,000 50 Level Cleveland Center
Sat 09:50:12 AM 43.3931 -78.0406 101° East 258 297 25,100  Climbing Cleveland Center
Sat 09:51:12 AM 43.3761 -77.9383 103° East 263 303 25,000 -50 Descending Cleveland Center
Sat 09:52:12 AM 43.3614 -77.8392 102° East 263 303 25,000 50 Level Cleveland Center
Sat 09:53:12 AM 43.3486 -77.7397 100° East 263 303 25,100 50 Climbing Cleveland Center
Sat 09:54:12 AM 43.3378 -77.6433 99° East 258 297 25,100  Level Cleveland Center
Sat 09:55:12 AM 43.3269 -77.5439 98° East 258 297 25,100 -37 Level Cleveland Center
Sat 09:56:56 AM 43.3053 -77.4056 102° East 260 299 25,000 -43 Descending Boston Center
Sat 09:57:33 AM 43.2833 -77.2667 102° East 260 299 25,000  Level Toronto Center
Sat 09:58:33 AM 43.2667 -77.1833 105° East 260 299 25,000 50 Level Toronto Center
Sat 09:59:33 AM 43.2500 -77.1000 105° East 260 299 25,100 50 Climbing Toronto Center
Sat 10:00:33 AM 43.2333 -76.9833 101° East 260 299 25,100  Level Toronto Center
Sat 10:01:33 AM 43.2333 -76.8833 90° East 260 299 25,100 -50 Level Toronto Center
Sat 10:02:33 AM 43.2167 -76.8000 105° East 260 299 25,000  Descending Toronto Center
Sat 10:03:33 AM 43.2000 -76.6833 101° East 270 311 25,100  Climbing Toronto Center
Sat 10:04:33 AM 43.1833 -76.5833 103° East 270 311 25,000 -50 Descending Toronto Center
Sat 10:05:33 AM 43.1667 -76.5000 105° East 270 311 25,000  Level Toronto Center
Sat 10:06:33 AM 43.1500 -76.3833 101° East 260 299 25,000  Level Toronto Center
Sat 10:07:33 AM 43.1500 -76.3000 90° East 270 311 25,000  Level Toronto Center
Sat 10:07:56 AM 43.1542 -76.2969 28° Northeast 260 299 25,000  Level Boston Center
Sat 10:08:56 AM 43.1389 -76.1992 102° East 260 299 25,000  Level Boston Center
Sat 10:09:56 AM 43.1211 -76.1014 104° East 260 299 25,000  Level Boston Center
Sat 10:10:56 AM 43.1014 -76.0036 105° East 260 299 25,000  Level Boston Center
Sat 10:11:56 AM 43.0878 -75.9031 100° East 260 299 25,000 -300 Level Boston Center
Sat 10:12:56 AM 43.0761 -75.8003 99° East 260 299 24,400 -700 Descending Boston Center
Sat 10:13:56 AM 43.0542 -75.6994 107° East 265 305 23,600 -850 Descending Boston Center
Sat 10:14:56 AM 43.0361 -75.5961 103° East 270 311 22,700 -850 Descending Boston Center
Sat 10:15:56 AM 43.0264 -75.4933 97° East 270 311 21,900 -900 Descending Boston Center
Sat 10:16:56 AM 43.0125 -75.3906 100° East 270 311 20,900 -900 Descending Boston Center
Sat 10:17:56 AM 42.9919 -75.2931 106° East 270 311 20,100 -727 Descending Boston Center
Sat 10:19:08 AM 42.9736 -75.1900 104° East 270 311 19,300 -909 Descending Boston Center
Sat 10:20:08 AM 42.9619 -75.0731 98° East 264 304 18,100 -900 Descending Boston Center
Sat 10:21:08 AM 42.9517 -74.9733 98° East 264 304 17,500 -800 Descending Boston Center
Sat 10:22:08 AM 42.9308 -74.8761 106° East 259 298 16,500 -1,188 Descending Boston Center
Sat 10:22:49 AM 42.9114 -74.8017 110° East 263 303 15,500 -1,300 Descending Boston Center
Sat 10:23:08 AM 42.9058 -74.7786 108° East 271 312 15,200 -1,333 Descending Boston Center
Sat 10:23:43 AM 42.8925 -74.7131 105° East 268 308 14,300 -1,200 Descending Boston Center
Sat 10:24:08 AM 42.8872 -74.6703 100° East 271 312 14,000 -982 Descending Boston Center
Sat 10:24:38 AM 42.8839 -74.6192 95° East 271 312 13,400 -1,000 Descending Boston Center
Sat 10:25:08 AM 42.8783 -74.5792 101° East 261 300 13,000 -1,100 Descending Boston Center
Sat 10:25:38 AM 42.8711 -74.5167 99° East 272 313 12,300 -1,082 Descending Boston Center
Sat 10:26:09 AM 42.8639 -74.4683 102° East 261 300 11,900 -857 Descending Boston Center
Sat 10:26:27 AM 42.8558 -74.4425 113° Southeast 270 311 11,600 -1,017 Descending Boston Center
Sat 10:27:08 AM 42.8403 -74.3825 109° East 261 300 10,900 -984 Descending Boston Center
Sat 10:27:28 AM 42.8306 -74.3456 110° East 273 314 10,600 -1,100 Descending Boston Center
Sat 10:28:08 AM 42.8128 -74.2769 109° East 271 312 9,800 -1,279 Descending Boston Center
Sat 10:28:29 AM 42.7986 -74.2453 121° Southeast 272 313 9,300 -1,300 Descending Boston Center
Sat 10:29:08 AM 42.7808 -74.1967 116° Southeast 271 312 8,500 -1,315 Descending Boston Center
Sat 10:29:42 AM 42.7586 -74.1425 119° Southeast 266 306 7,700 -1,300 Descending Boston Center
Sat 10:30:08 AM 42.7447 -74.0939 111° Southeast 271 312 7,200 -1,182 Descending Boston Center
Sat 10:30:48 AM 42.7289 -74.0397 112° Southeast 255 293 6,400 -1,200 Descending Boston Center
Sat 10:31:08 AM 42.7231 -74.0086 104° East 253 291 6,000 -1,592 Descending Boston Center
Sat 10:31:37 AM 42.7092 -73.9631 113° Southeast 254 292 5,100 -2,000 Descending Boston Center
Sat 10:32:08 AM 42.6992 -73.9206 108° East 253 291 4,000 -2,400 Descending Boston Center
Sat 10:32:37 AM 42.6914 -73.8778 104° East 229 264 2,700 -500 Descending Boston Center
Sat 10:33:08 AM 42.6753 -73.8436 123° Southeast 253 291 3,500 -1,343 Climbing Boston Center
Sat 10:33:44 AM 42.7047 -73.8103 40° Northeast 151 174 1,200 -3,833 Descending Boston Center

Login

Don't have an account? Register now (free) for customized features, flight alerts, and more!